sensor_id;sensor_type;location;lat;lon;timestamp;P1;durP1;ratioP1;P2;durP2;ratioP2
27293;SDS011;14785;52.556;13.430;2022-08-20T00:01:37;41.77;;;35.87;;
27293;SDS011;14785;52.556;13.430;2022-08-20T00:04:02;38.07;;;32.50;;
27293;SDS011;14785;52.556;13.430;2022-08-20T00:06:28;44.43;;;36.83;;
27293;SDS011;14785;52.556;13.430;2022-08-20T00:08:53;52.37;;;38.40;;
27293;SDS011;14785;52.556;13.430;2022-08-20T00:11:21;49.47;;;38.97;;
27293;SDS011;14785;52.556;13.430;2022-08-20T00:13:50;44.53;;;37.70;;
27293;SDS011;14785;52.556;13.430;2022-08-20T00:16:24;52.80;;;39.50;;
27293;SDS011;14785;52.556;13.430;2022-08-20T00:18:51;47.40;;;38.75;;
27293;SDS011;14785;52.556;13.430;2022-08-20T00:21:18;56.38;;;41.92;;
27293;SDS011;14785;52.556;13.430;2022-08-20T00:23:47;65.45;;;48.33;;
27293;SDS011;14785;52.556;13.430;2022-08-20T00:26:14;68.63;;;47.53;;
27293;SDS011;14785;52.556;13.430;2022-08-20T00:28:39;71.03;;;48.05;;
27293;SDS011;14785;52.556;13.430;2022-08-20T00:31:06;79.77;;;53.83;;
27293;SDS011;14785;52.556;13.430;2022-08-20T00:33:33;78.20;;;55.47;;
27293;SDS011;14785;52.556;13.430;2022-08-20T00:36:00;79.43;;;53.10;;
27293;SDS011;14785;52.556;13.430;2022-08-20T00:38:31;70.93;;;49.25;;
27293;SDS011;14785;52.556;13.430;2022-08-20T00:40:57;71.22;;;51.08;;
27293;SDS011;14785;52.556;13.430;2022-08-20T00:43:27;61.33;;;45.58;;
27293;SDS011;14785;52.556;13.430;2022-08-20T00:45:53;66.80;;;47.97;;
27293;SDS011;14785;52.556;13.430;2022-08-20T00:48:20;58.22;;;43.53;;
27293;SDS011;14785;52.556;13.430;2022-08-20T00:50:47;62.35;;;45.85;;
27293;SDS011;14785;52.556;13.430;2022-08-20T00:53:12;50.37;;;39.03;;
27293;SDS011;14785;52.556;13.430;2022-08-20T00:55:39;49.75;;;41.75;;
27293;SDS011;14785;52.556;13.430;2022-08-20T00:58:06;33.50;;;28.35;;
27293;SDS011;14785;52.556;13.430;2022-08-20T01:00:37;41.10;;;32.25;;
27293;SDS011;14785;52.556;13.430;2022-08-20T01:03:07;44.15;;;32.30;;
27293;SDS011;14785;52.556;13.430;2022-08-20T01:05:35;48.13;;;38.35;;
27293;SDS011;14785;52.556;13.430;2022-08-20T01:08:02;31.67;;;25.90;;
27293;SDS011;14785;52.556;13.430;2022-08-20T01:10:29;39.58;;;33.72;;
27293;SDS011;14785;52.556;13.430;2022-08-20T01:12:58;39.17;;;32.65;;
27293;SDS011;14785;52.556;13.430;2022-08-20T01:15:28;36.63;;;32.03;;
27293;SDS011;14785;52.556;13.430;2022-08-20T01:17:56;41.97;;;35.25;;
27293;SDS011;14785;52.556;13.430;2022-08-20T01:20:33;31.17;;;27.63;;
27293;SDS011;14785;52.556;13.430;2022-08-20T01:25:56;34.73;;;30.40;;
27293;SDS011;14785;52.556;13.430;2022-08-20T01:28:45;42.65;;;34.05;;
27293;SDS011;14785;52.556;13.430;2022-08-20T01:31:15;45.58;;;36.83;;
27293;SDS011;14785;52.556;13.430;2022-08-20T01:33:42;39.28;;;34.17;;
27293;SDS011;14785;52.556;13.430;2022-08-20T01:36:08;43.92;;;34.40;;
27293;SDS011;14785;52.556;13.430;2022-08-20T01:41:19;41.90;;;33.05;;
27293;SDS011;14785;52.556;13.430;2022-08-20T01:44:07;27.98;;;24.90;;
27293;SDS011;14785;52.556;13.430;2022-08-20T01:46:35;32.85;;;29.13;;
27293;SDS011;14785;52.556;13.430;2022-08-20T01:49:10;37.58;;;31.40;;
27293;SDS011;14785;52.556;13.430;2022-08-20T01:51:36;33.50;;;29.30;;
27293;SDS011;14785;52.556;13.430;2022-08-20T01:54:01;33.97;;;29.23;;
27293;SDS011;14785;52.556;13.430;2022-08-20T01:56:28;29.77;;;26.73;;
27293;SDS011;14785;52.556;13.430;2022-08-20T01:58:56;30.83;;;26.58;;
27293;SDS011;14785;52.556;13.430;2022-08-20T02:01:31;31.83;;;27.95;;
27293;SDS011;14785;52.556;13.430;2022-08-20T02:03:59;30.05;;;26.80;;
27293;SDS011;14785;52.556;13.430;2022-08-20T02:06:27;33.95;;;30.23;;
27293;SDS011;14785;52.556;13.430;2022-08-20T02:08:55;31.60;;;27.58;;
27293;SDS011;14785;52.556;13.430;2022-08-20T02:11:22;34.03;;;29.92;;
27293;SDS011;14785;52.556;13.430;2022-08-20T02:13:48;42.63;;;35.38;;
27293;SDS011;14785;52.556;13.430;2022-08-20T02:16:16;39.15;;;34.67;;
27293;SDS011;14785;52.556;13.430;2022-08-20T02:18:43;36.25;;;30.65;;
27293;SDS011;14785;52.556;13.430;2022-08-20T02:21:08;33.87;;;29.80;;
27293;SDS011;14785;52.556;13.430;2022-08-20T02:23:34;32.43;;;28.23;;
27293;SDS011;14785;52.556;13.430;2022-08-20T02:25:59;42.30;;;32.03;;
27293;SDS011;14785;52.556;13.430;2022-08-20T02:28:24;35.73;;;29.53;;
27293;SDS011;14785;52.556;13.430;2022-08-20T02:30:52;32.72;;;29.10;;
27293;SDS011;14785;52.556;13.430;2022-08-20T02:33:20;38.20;;;33.15;;
27293;SDS011;14785;52.556;13.430;2022-08-20T02:35:47;31.83;;;28.35;;
27293;SDS011;14785;52.556;13.430;2022-08-20T02:38:14;26.52;;;23.30;;
27293;SDS011;14785;52.556;13.430;2022-08-20T02:40:42;37.05;;;29.85;;
27293;SDS011;14785;52.556;13.430;2022-08-20T02:43:09;41.20;;;32.08;;
27293;SDS011;14785;52.556;13.430;2022-08-20T02:45:36;28.95;;;25.83;;
27293;SDS011;14785;52.556;13.430;2022-08-20T02:48:08;27.92;;;24.95;;
27293;SDS011;14785;52.556;13.430;2022-08-20T02:50:35;23.50;;;20.88;;
27293;SDS011;14785;52.556;13.430;2022-08-20T02:53:00;29.23;;;26.03;;
27293;SDS011;14785;52.556;13.430;2022-08-20T02:55:26;52.35;;;38.92;;
27293;SDS011;14785;52.556;13.430;2022-08-20T02:57:53;20.23;;;18.07;;
27293;SDS011;14785;52.556;13.430;2022-08-20T03:00:19;36.30;;;27.65;;
27293;SDS011;14785;52.556;13.430;2022-08-20T03:02:46;41.03;;;29.52;;
27293;SDS011;14785;52.556;13.430;2022-08-20T03:05:12;37.50;;;26.48;;
27293;SDS011;14785;52.556;13.430;2022-08-20T03:07:40;44.03;;;31.75;;
27293;SDS011;14785;52.556;13.430;2022-08-20T03:10:09;27.42;;;24.50;;
27293;SDS011;14785;52.556;13.430;2022-08-20T03:12:35;34.90;;;26.73;;
27293;SDS011;14785;52.556;13.430;2022-08-20T03:15:02;45.42;;;31.25;;
27293;SDS011;14785;52.556;13.430;2022-08-20T03:17:28;47.47;;;31.88;;
27293;SDS011;14785;52.556;13.430;2022-08-20T03:19:53;16.97;;;15.23;;
27293;SDS011;14785;52.556;13.430;2022-08-20T03:22:19;22.97;;;19.60;;
27293;SDS011;14785;52.556;13.430;2022-08-20T03:24:44;32.27;;;26.63;;
27293;SDS011;14785;52.556;13.430;2022-08-20T03:27:11;35.13;;;27.43;;
27293;SDS011;14785;52.556;13.430;2022-08-20T03:29:37;33.80;;;26.48;;
27293;SDS011;14785;52.556;13.430;2022-08-20T03:32:02;41.97;;;32.00;;
27293;SDS011;14785;52.556;13.430;2022-08-20T03:34:28;26.47;;;23.30;;
27293;SDS011;14785;52.556;13.430;2022-08-20T03:36:53;50.73;;;36.33;;
27293;SDS011;14785;52.556;13.430;2022-08-20T03:39:19;62.97;;;42.07;;
27293;SDS011;14785;52.556;13.430;2022-08-20T03:41:44;54.53;;;38.83;;
27293;SDS011;14785;52.556;13.430;2022-08-20T03:44:09;53.40;;;39.57;;
27293;SDS011;14785;52.556;13.430;2022-08-20T03:46:35;59.73;;;42.93;;
27293;SDS011;14785;52.556;13.430;2022-08-20T03:49:00;29.37;;;24.50;;
27293;SDS011;14785;52.556;13.430;2022-08-20T03:51:28;67.40;;;44.30;;
27293;SDS011;14785;52.556;13.430;2022-08-20T03:53:55;76.32;;;48.28;;
27293;SDS011;14785;52.556;13.430;2022-08-20T03:56:20;68.20;;;45.63;;
27293;SDS011;14785;52.556;13.430;2022-08-20T03:58:45;27.43;;;21.67;;
27293;SDS011;14785;52.556;13.430;2022-08-20T04:01:11;54.73;;;41.33;;
27293;SDS011;14785;52.556;13.430;2022-08-20T04:03:36;47.63;;;36.50;;
27293;SDS011;14785;52.556;13.430;2022-08-20T04:06:02;60.97;;;43.80;;
27293;SDS011;14785;52.556;13.430;2022-08-20T04:08:28;54.97;;;42.75;;
27293;SDS011;14785;52.556;13.430;2022-08-20T04:10:54;38.53;;;30.90;;
27293;SDS011;14785;52.556;13.430;2022-08-20T04:13:22;44.97;;;34.28;;
27293;SDS011;14785;52.556;13.430;2022-08-20T04:15:49;43.50;;;34.45;;
27293;SDS011;14785;52.556;13.430;2022-08-20T04:18:14;45.88;;;36.42;;
27293;SDS011;14785;52.556;13.430;2022-08-20T04:20:44;58.75;;;44.00;;
27293;SDS011;14785;52.556;13.430;2022-08-20T04:23:10;60.42;;;45.33;;
27293;SDS011;14785;52.556;13.430;2022-08-20T04:25:38;69.88;;;48.75;;
27293;SDS011;14785;52.556;13.430;2022-08-20T04:28:08;51.40;;;39.45;;
27293;SDS011;14785;52.556;13.430;2022-08-20T04:30:36;49.08;;;38.17;;
27293;SDS011;14785;52.556;13.430;2022-08-20T04:33:02;57.90;;;44.78;;
27293;SDS011;14785;52.556;13.430;2022-08-20T04:35:28;37.43;;;31.07;;
27293;SDS011;14785;52.556;13.430;2022-08-20T04:37:58;56.80;;;42.60;;
27293;SDS011;14785;52.556;13.430;2022-08-20T04:40:25;43.50;;;36.78;;
27293;SDS011;14785;52.556;13.430;2022-08-20T04:43:10;28.55;;;25.30;;
27293;SDS011;14785;52.556;13.430;2022-08-20T04:45:36;51.83;;;40.50;;
27293;SDS011;14785;52.556;13.430;2022-08-20T04:48:02;46.50;;;37.08;;
27293;SDS011;14785;52.556;13.430;2022-08-20T04:50:30;54.83;;;42.72;;
27293;SDS011;14785;52.556;13.430;2022-08-20T04:53:04;61.88;;;44.50;;
27293;SDS011;14785;52.556;13.430;2022-08-20T04:55:31;65.35;;;46.72;;
27293;SDS011;14785;52.556;13.430;2022-08-20T05:00:30;43.38;;;35.90;;
27293;SDS011;14785;52.556;13.430;2022-08-20T05:02:56;59.85;;;45.10;;
27293;SDS011;14785;52.556;13.430;2022-08-20T05:05:21;66.82;;;47.33;;
27293;SDS011;14785;52.556;13.430;2022-08-20T05:07:47;47.97;;;40.10;;
27293;SDS011;14785;52.556;13.430;2022-08-20T05:10:13;58.97;;;45.30;;
27293;SDS011;14785;52.556;13.430;2022-08-20T05:12:42;57.42;;;44.70;;
27293;SDS011;14785;52.556;13.430;2022-08-20T05:15:08;57.20;;;43.72;;
27293;SDS011;14785;52.556;13.430;2022-08-20T05:17:38;55.28;;;43.58;;
27293;SDS011;14785;52.556;13.430;2022-08-20T05:20:05;55.30;;;42.55;;
27293;SDS011;14785;52.556;13.430;2022-08-20T05:22:32;57.72;;;45.03;;
27293;SDS011;14785;52.556;13.430;2022-08-20T05:24:58;49.53;;;39.93;;
27293;SDS011;14785;52.556;13.430;2022-08-20T05:27:23;57.23;;;45.50;;
27293;SDS011;14785;52.556;13.430;2022-08-20T05:29:51;35.40;;;31.13;;
27293;SDS011;14785;52.556;13.430;2022-08-20T05:32:37;50.88;;;40.72;;
27293;SDS011;14785;52.556;13.430;2022-08-20T05:35:03;49.65;;;38.95;;
27293;SDS011;14785;52.556;13.430;2022-08-20T05:37:38;29.30;;;26.13;;
27293;SDS011;14785;52.556;13.430;2022-08-20T05:40:11;42.15;;;34.70;;
27293;SDS011;14785;52.556;13.430;2022-08-20T05:42:38;27.90;;;24.98;;
27293;SDS011;14785;52.556;13.430;2022-08-20T05:45:04;36.10;;;31.40;;
27293;SDS011;14785;52.556;13.430;2022-08-20T05:49:56;36.03;;;30.83;;
27293;SDS011;14785;52.556;13.430;2022-08-20T05:52:21;45.50;;;38.43;;
27293;SDS011;14785;52.556;13.430;2022-08-20T05:54:47;35.83;;;30.33;;
27293;SDS011;14785;52.556;13.430;2022-08-20T05:57:15;49.93;;;39.30;;
27293;SDS011;14785;52.556;13.430;2022-08-20T05:59:43;39.33;;;32.83;;
27293;SDS011;14785;52.556;13.430;2022-08-20T06:02:08;44.17;;;39.37;;
27293;SDS011;14785;52.556;13.430;2022-08-20T06:04:53;52.42;;;41.30;;
27293;SDS011;14785;52.556;13.430;2022-08-20T06:07:19;44.13;;;36.37;;
27293;SDS011;14785;52.556;13.430;2022-08-20T06:09:44;41.27;;;34.03;;
27293;SDS011;14785;52.556;13.430;2022-08-20T06:12:10;37.87;;;31.90;;
27293;SDS011;14785;52.556;13.430;2022-08-20T06:14:35;45.03;;;39.37;;
27293;SDS011;14785;52.556;13.430;2022-08-20T06:17:05;41.67;;;33.30;;
27293;SDS011;14785;52.556;13.430;2022-08-20T06:19:33;28.08;;;25.02;;
27293;SDS011;14785;52.556;13.430;2022-08-20T06:22:00;26.08;;;23.40;;
27293;SDS011;14785;52.556;13.430;2022-08-20T06:24:26;38.65;;;32.47;;
27293;SDS011;14785;52.556;13.430;2022-08-20T06:26:58;29.07;;;25.50;;
27293;SDS011;14785;52.556;13.430;2022-08-20T06:29:26;40.50;;;33.92;;
27293;SDS011;14785;52.556;13.430;2022-08-20T06:31:53;40.10;;;33.17;;
27293;SDS011;14785;52.556;13.430;2022-08-20T06:34:18;46.40;;;38.60;;
27293;SDS011;14785;52.556;13.430;2022-08-20T06:36:44;42.72;;;35.75;;
27293;SDS011;14785;52.556;13.430;2022-08-20T06:39:12;46.80;;;38.08;;
27293;SDS011;14785;52.556;13.430;2022-08-20T06:41:38;48.33;;;39.70;;
27293;SDS011;14785;52.556;13.430;2022-08-20T06:44:04;47.17;;;36.80;;
27293;SDS011;14785;52.556;13.430;2022-08-20T06:46:32;38.13;;;31.45;;
27293;SDS011;14785;52.556;13.430;2022-08-20T06:48:58;48.47;;;39.15;;
27293;SDS011;14785;52.556;13.430;2022-08-20T06:51:24;29.10;;;26.00;;
27293;SDS011;14785;52.556;13.430;2022-08-20T06:53:49;38.93;;;32.80;;
27293;SDS011;14785;52.556;13.430;2022-08-20T06:56:15;55.97;;;42.80;;
27293;SDS011;14785;52.556;13.430;2022-08-20T06:58:40;41.63;;;35.23;;
27293;SDS011;14785;52.556;13.430;2022-08-20T07:01:08;37.30;;;31.02;;
27293;SDS011;14785;52.556;13.430;2022-08-20T07:03:35;51.03;;;42.95;;
27293;SDS011;14785;52.556;13.430;2022-08-20T07:06:02;42.80;;;33.60;;
27293;SDS011;14785;52.556;13.430;2022-08-20T07:10:53;50.97;;;42.13;;
27293;SDS011;14785;52.556;13.430;2022-08-20T07:13:19;47.63;;;39.90;;
27293;SDS011;14785;52.556;13.430;2022-08-20T07:15:44;52.97;;;43.23;;
27293;SDS011;14785;52.556;13.430;2022-08-20T07:18:14;38.63;;;33.13;;
27293;SDS011;14785;52.556;13.430;2022-08-20T07:20:39;35.33;;;28.87;;
27293;SDS011;14785;52.556;13.430;2022-08-20T07:23:05;45.42;;;35.22;;
27293;SDS011;14785;52.556;13.430;2022-08-20T07:25:32;45.85;;;35.65;;
27293;SDS011;14785;52.556;13.430;2022-08-20T07:28:22;37.28;;;30.35;;
27293;SDS011;14785;52.556;13.430;2022-08-20T07:30:46;49.95;;;41.13;;
27293;SDS011;14785;52.556;13.430;2022-08-20T07:33:31;50.60;;;40.40;;
27293;SDS011;14785;52.556;13.430;2022-08-20T07:35:57;48.17;;;37.72;;
27293;SDS011;14785;52.556;13.430;2022-08-20T07:38:25;59.53;;;44.67;;
27293;SDS011;14785;52.556;13.430;2022-08-20T07:40:54;63.50;;;47.13;;
27293;SDS011;14785;52.556;13.430;2022-08-20T07:43:21;62.42;;;48.08;;
27293;SDS011;14785;52.556;13.430;2022-08-20T07:45:48;55.45;;;45.63;;
27293;SDS011;14785;52.556;13.430;2022-08-20T07:48:15;59.47;;;46.90;;
27293;SDS011;14785;52.556;13.430;2022-08-20T07:50:41;44.85;;;37.45;;
27293;SDS011;14785;52.556;13.430;2022-08-20T07:53:07;63.77;;;47.27;;
27293;SDS011;14785;52.556;13.430;2022-08-20T07:58:04;70.30;;;51.93;;
27293;SDS011;14785;52.556;13.430;2022-08-20T08:00:33;71.70;;;52.35;;
27293;SDS011;14785;52.556;13.430;2022-08-20T08:02:58;74.60;;;54.20;;
27293;SDS011;14785;52.556;13.430;2022-08-20T08:05:24;69.77;;;52.53;;
27293;SDS011;14785;52.556;13.430;2022-08-20T08:07:50;62.33;;;49.85;;
27293;SDS011;14785;52.556;13.430;2022-08-20T08:10:17;57.83;;;48.70;;
27293;SDS011;14785;52.556;13.430;2022-08-20T08:12:47;62.50;;;47.47;;
27293;SDS011;14785;52.556;13.430;2022-08-20T08:15:19;57.90;;;44.70;;
27293;SDS011;14785;52.556;13.430;2022-08-20T08:17:48;58.38;;;43.80;;
27293;SDS011;14785;52.556;13.430;2022-08-20T08:20:16;44.22;;;36.50;;
27293;SDS011;14785;52.556;13.430;2022-08-20T08:22:43;71.15;;;51.45;;
27293;SDS011;14785;52.556;13.430;2022-08-20T08:25:09;56.03;;;42.13;;
27293;SDS011;14785;52.556;13.430;2022-08-20T08:27:35;71.70;;;53.20;;
27293;SDS011;14785;52.556;13.430;2022-08-20T08:30:01;59.80;;;44.90;;
27293;SDS011;14785;52.556;13.430;2022-08-20T08:32:28;66.00;;;51.67;;
27293;SDS011;14785;52.556;13.430;2022-08-20T08:34:55;80.55;;;54.05;;
27293;SDS011;14785;52.556;13.430;2022-08-20T08:37:21;72.28;;;52.92;;
27293;SDS011;14785;52.556;13.430;2022-08-20T08:39:47;80.17;;;56.00;;
27293;SDS011;14785;52.556;13.430;2022-08-20T08:44:57;72.25;;;53.45;;
27293;SDS011;14785;52.556;13.430;2022-08-20T08:47:34;77.22;;;55.50;;
27293;SDS011;14785;52.556;13.430;2022-08-20T08:50:03;76.30;;;57.33;;
27293;SDS011;14785;52.556;13.430;2022-08-20T08:52:36;73.10;;;54.53;;
27293;SDS011;14785;52.556;13.430;2022-08-20T08:55:09;70.35;;;54.60;;
27293;SDS011;14785;52.556;13.430;2022-08-20T08:57:37;60.28;;;46.00;;
27293;SDS011;14785;52.556;13.430;2022-08-20T09:00:12;68.27;;;50.50;;
27293;SDS011;14785;52.556;13.430;2022-08-20T09:02:52;57.42;;;47.17;;
27293;SDS011;14785;52.556;13.430;2022-08-20T09:05:18;52.78;;;42.13;;
27293;SDS011;14785;52.556;13.430;2022-08-20T09:07:47;61.55;;;47.25;;
27293;SDS011;14785;52.556;13.430;2022-08-20T09:10:15;58.70;;;46.83;;
27293;SDS011;14785;52.556;13.430;2022-08-20T09:12:41;64.30;;;50.30;;
27293;SDS011;14785;52.556;13.430;2022-08-20T09:15:08;62.17;;;49.85;;
27293;SDS011;14785;52.556;13.430;2022-08-20T09:17:34;66.57;;;48.80;;
27293;SDS011;14785;52.556;13.430;2022-08-20T09:20:00;57.47;;;46.33;;
27293;SDS011;14785;52.556;13.430;2022-08-20T09:22:25;55.77;;;45.47;;
27293;SDS011;14785;52.556;13.430;2022-08-20T09:24:51;62.75;;;48.28;;
27293;SDS011;14785;52.556;13.430;2022-08-20T09:27:17;56.78;;;44.80;;
27293;SDS011;14785;52.556;13.430;2022-08-20T09:29:42;54.00;;;43.55;;
27293;SDS011;14785;52.556;13.430;2022-08-20T09:32:10;60.37;;;44.83;;
27293;SDS011;14785;52.556;13.430;2022-08-20T09:34:38;55.25;;;43.78;;
27293;SDS011;14785;52.556;13.430;2022-08-20T09:37:06;57.90;;;47.85;;
27293;SDS011;14785;52.556;13.430;2022-08-20T09:39:31;58.90;;;47.93;;
27293;SDS011;14785;52.556;13.430;2022-08-20T09:42:10;61.60;;;47.03;;
27293;SDS011;14785;52.556;13.430;2022-08-20T09:44:38;64.95;;;49.58;;
27293;SDS011;14785;52.556;13.430;2022-08-20T09:47:04;62.92;;;48.67;;
27293;SDS011;14785;52.556;13.430;2022-08-20T09:49:30;55.47;;;44.33;;
27293;SDS011;14785;52.556;13.430;2022-08-20T09:51:56;61.33;;;46.83;;
27293;SDS011;14785;52.556;13.430;2022-08-20T09:54:25;70.65;;;50.38;;
27293;SDS011;14785;52.556;13.430;2022-08-20T09:56:54;67.78;;;51.15;;
27293;SDS011;14785;52.556;13.430;2022-08-20T09:59:21;45.58;;;37.03;;
27293;SDS011;14785;52.556;13.430;2022-08-20T10:01:47;68.07;;;50.67;;
27293;SDS011;14785;52.556;13.430;2022-08-20T10:04:12;65.97;;;50.93;;
27293;SDS011;14785;52.556;13.430;2022-08-20T10:06:38;63.03;;;48.80;;
27293;SDS011;14785;52.556;13.430;2022-08-20T10:09:05;63.30;;;47.47;;
27293;SDS011;14785;52.556;13.430;2022-08-20T10:11:30;59.20;;;47.07;;
27293;SDS011;14785;52.556;13.430;2022-08-20T10:13:56;53.73;;;42.70;;
27293;SDS011;14785;52.556;13.430;2022-08-20T10:16:21;60.43;;;44.53;;
27293;SDS011;14785;52.556;13.430;2022-08-20T10:18:46;54.53;;;43.70;;
27293;SDS011;14785;52.556;13.430;2022-08-20T10:21:15;51.75;;;39.30;;
27293;SDS011;14785;52.556;13.430;2022-08-20T10:23:41;53.97;;;40.35;;
27293;SDS011;14785;52.556;13.430;2022-08-20T10:26:07;47.97;;;37.95;;
27293;SDS011;14785;52.556;13.430;2022-08-20T10:28:34;45.97;;;37.88;;
27293;SDS011;14785;52.556;13.430;2022-08-20T10:30:59;48.40;;;36.08;;
27293;SDS011;14785;52.556;13.430;2022-08-20T10:33:24;39.50;;;32.47;;
27293;SDS011;14785;52.556;13.430;2022-08-20T10:35:50;33.30;;;27.43;;
27293;SDS011;14785;52.556;13.430;2022-08-20T10:38:15;37.57;;;30.63;;
27293;SDS011;14785;52.556;13.430;2022-08-20T10:40:41;33.00;;;27.20;;
27293;SDS011;14785;52.556;13.430;2022-08-20T10:43:06;33.57;;;27.27;;
27293;SDS011;14785;52.556;13.430;2022-08-20T10:45:31;30.77;;;25.50;;
27293;SDS011;14785;52.556;13.430;2022-08-20T10:48:01;29.33;;;25.80;;
27293;SDS011;14785;52.556;13.430;2022-08-20T10:50:27;27.55;;;21.05;;
27293;SDS011;14785;52.556;13.430;2022-08-20T10:52:52;25.10;;;19.57;;
27293;SDS011;14785;52.556;13.430;2022-08-20T10:55:17;23.30;;;19.40;;
27293;SDS011;14785;52.556;13.430;2022-08-20T10:57:43;22.90;;;19.97;;
27293;SDS011;14785;52.556;13.430;2022-08-20T11:00:11;24.30;;;19.80;;
27293;SDS011;14785;52.556;13.430;2022-08-20T11:02:38;24.25;;;20.92;;
27293;SDS011;14785;52.556;13.430;2022-08-20T11:05:04;24.00;;;21.48;;
27293;SDS011;14785;52.556;13.430;2022-08-20T11:07:32;29.45;;;22.50;;
27293;SDS011;14785;52.556;13.430;2022-08-20T11:10:02;35.00;;;25.27;;
27293;SDS011;14785;52.556;13.430;2022-08-20T11:12:29;28.10;;;24.23;;
27293;SDS011;14785;52.556;13.430;2022-08-20T11:14:54;27.03;;;22.70;;
27293;SDS011;14785;52.556;13.430;2022-08-20T11:17:24;29.33;;;21.57;;
27293;SDS011;14785;52.556;13.430;2022-08-20T11:19:51;27.10;;;21.15;;
27293;SDS011;14785;52.556;13.430;2022-08-20T11:22:17;20.83;;;16.75;;
27293;SDS011;14785;52.556;13.430;2022-08-20T11:24:43;17.15;;;14.45;;
27293;SDS011;14785;52.556;13.430;2022-08-20T11:27:09;14.75;;;13.05;;
27293;SDS011;14785;52.556;13.430;2022-08-20T11:29:39;12.98;;;11.48;;
27293;SDS011;14785;52.556;13.430;2022-08-20T11:32:06;15.40;;;12.13;;
27293;SDS011;14785;52.556;13.430;2022-08-20T11:34:31;12.75;;;11.25;;
27293;SDS011;14785;52.556;13.430;2022-08-20T11:36:57;16.60;;;11.40;;
27293;SDS011;14785;52.556;13.430;2022-08-20T11:39:23;63.50;;;38.38;;
27293;SDS011;14785;52.556;13.430;2022-08-20T11:41:49;13.85;;;11.18;;
27293;SDS011;14785;52.556;13.430;2022-08-20T11:44:14;12.90;;;10.17;;
27293;SDS011;14785;52.556;13.430;2022-08-20T11:46:42;14.03;;;9.43;;
27293;SDS011;14785;52.556;13.430;2022-08-20T11:49:08;14.43;;;10.35;;
27293;SDS011;14785;52.556;13.430;2022-08-20T11:51:33;13.47;;;9.30;;
27293;SDS011;14785;52.556;13.430;2022-08-20T11:53:59;12.10;;;9.57;;
27293;SDS011;14785;52.556;13.430;2022-08-20T11:56:24;12.63;;;9.13;;
27293;SDS011;14785;52.556;13.430;2022-08-20T11:58:50;13.93;;;9.02;;
27293;SDS011;14785;52.556;13.430;2022-08-20T12:01:15;16.50;;;9.17;;
27293;SDS011;14785;52.556;13.430;2022-08-20T12:03:40;11.80;;;9.33;;
27293;SDS011;14785;52.556;13.430;2022-08-20T12:06:06;12.57;;;8.57;;
27293;SDS011;14785;52.556;13.430;2022-08-20T12:08:31;11.50;;;9.30;;
27293;SDS011;14785;52.556;13.430;2022-08-20T12:10:58;11.17;;;9.13;;
27293;SDS011;14785;52.556;13.430;2022-08-20T12:13:26;9.35;;;8.38;;
27293;SDS011;14785;52.556;13.430;2022-08-20T12:15:52;10.10;;;8.82;;
27293;SDS011;14785;52.556;13.430;2022-08-20T12:18:18;13.02;;;9.35;;
27293;SDS011;14785;52.556;13.430;2022-08-20T12:20:44;14.38;;;10.35;;
27293;SDS011;14785;52.556;13.430;2022-08-20T12:23:09;10.57;;;9.30;;
27293;SDS011;14785;52.556;13.430;2022-08-20T12:25:35;14.00;;;10.93;;
27293;SDS011;14785;52.556;13.430;2022-08-20T12:28:00;14.57;;;11.37;;
27293;SDS011;14785;52.556;13.430;2022-08-20T12:30:26;16.83;;;11.57;;
27293;SDS011;14785;52.556;13.430;2022-08-20T12:32:51;12.70;;;11.03;;
27293;SDS011;14785;52.556;13.430;2022-08-20T12:35:17;12.77;;;11.40;;
27293;SDS011;14785;52.556;13.430;2022-08-20T12:40:11;13.02;;;11.60;;
27293;SDS011;14785;52.556;13.430;2022-08-20T12:42:42;13.23;;;10.57;;
27293;SDS011;14785;52.556;13.430;2022-08-20T12:45:07;15.27;;;11.00;;
27293;SDS011;14785;52.556;13.430;2022-08-20T12:52:31;13.27;;;10.98;;
27293;SDS011;14785;52.556;13.430;2022-08-20T12:54:57;12.80;;;9.75;;
27293;SDS011;14785;52.556;13.430;2022-08-20T12:57:33;15.27;;;10.77;;
27293;SDS011;14785;52.556;13.430;2022-08-20T13:00:02;13.07;;;9.98;;
27293;SDS011;14785;52.556;13.430;2022-08-20T13:02:30;13.30;;;10.15;;
27293;SDS011;14785;52.556;13.430;2022-08-20T13:04:56;13.63;;;10.77;;
27293;SDS011;14785;52.556;13.430;2022-08-20T13:07:21;11.83;;;9.20;;
27293;SDS011;14785;52.556;13.430;2022-08-20T13:09:46;13.47;;;9.20;;
27293;SDS011;14785;52.556;13.430;2022-08-20T13:12:12;11.30;;;9.27;;
27293;SDS011;14785;52.556;13.430;2022-08-20T13:14:38;13.32;;;10.18;;
27293;SDS011;14785;52.556;13.430;2022-08-20T13:19:31;13.50;;;10.60;;
27293;SDS011;14785;52.556;13.430;2022-08-20T13:21:59;14.00;;;10.48;;
27293;SDS011;14785;52.556;13.430;2022-08-20T13:24:24;13.57;;;10.27;;
27293;SDS011;14785;52.556;13.430;2022-08-20T13:26:50;15.32;;;11.40;;
27293;SDS011;14785;52.556;13.430;2022-08-20T13:29:16;14.33;;;12.00;;
27293;SDS011;14785;52.556;13.430;2022-08-20T13:31:42;13.90;;;11.48;;
27293;SDS011;14785;52.556;13.430;2022-08-20T13:34:08;13.43;;;11.90;;
27293;SDS011;14785;52.556;13.430;2022-08-20T13:36:33;13.73;;;12.17;;
27293;SDS011;14785;52.556;13.430;2022-08-20T13:39:00;19.42;;;13.52;;
27293;SDS011;14785;52.556;13.430;2022-08-20T13:41:26;15.45;;;11.73;;
27293;SDS011;14785;52.556;13.430;2022-08-20T13:43:52;15.97;;;13.17;;
27293;SDS011;14785;52.556;13.430;2022-08-20T13:46:17;17.63;;;13.77;;
27293;SDS011;14785;52.556;13.430;2022-08-20T13:48:42;14.83;;;12.53;;
27293;SDS011;14785;52.556;13.430;2022-08-20T13:51:08;15.17;;;12.37;;
27293;SDS011;14785;52.556;13.430;2022-08-20T13:53:34;19.92;;;15.00;;
27293;SDS011;14785;52.556;13.430;2022-08-20T13:55:59;17.53;;;15.33;;
27293;SDS011;14785;52.556;13.430;2022-08-20T13:58:25;19.37;;;15.07;;
27293;SDS011;14785;52.556;13.430;2022-08-20T14:00:50;22.97;;;15.83;;
27293;SDS011;14785;52.556;13.430;2022-08-20T14:03:16;22.03;;;16.30;;
27293;SDS011;14785;52.556;13.430;2022-08-20T14:05:41;25.87;;;17.90;;
27293;SDS011;14785;52.556;13.430;2022-08-20T14:08:08;25.60;;;17.75;;
27293;SDS011;14785;52.556;13.430;2022-08-20T14:10:42;26.90;;;19.23;;
27293;SDS011;14785;52.556;13.430;2022-08-20T14:13:08;26.08;;;18.02;;
27293;SDS011;14785;52.556;13.430;2022-08-20T14:15:34;29.92;;;20.67;;
27293;SDS011;14785;52.556;13.430;2022-08-20T14:18:01;32.65;;;21.27;;
27293;SDS011;14785;52.556;13.430;2022-08-20T14:20:29;30.85;;;21.77;;
27293;SDS011;14785;52.556;13.430;2022-08-20T14:22:56;25.35;;;19.90;;
27293;SDS011;14785;52.556;13.430;2022-08-20T14:27:48;29.05;;;21.42;;
27293;SDS011;14785;52.556;13.430;2022-08-20T14:30:16;30.98;;;22.42;;
27293;SDS011;14785;52.556;13.430;2022-08-20T14:32:44;31.05;;;21.45;;
27293;SDS011;14785;52.556;13.430;2022-08-20T14:35:09;32.40;;;23.70;;
27293;SDS011;14785;52.556;13.430;2022-08-20T14:40:03;31.33;;;23.88;;
27293;SDS011;14785;52.556;13.430;2022-08-20T14:42:32;30.40;;;23.85;;